sensor_id;sensor_type;location;lat;lon;timestamp;pressure;altitude;pressure_sealevel;temperature;humidity
48204;BME280;33994;50.998;5.864;2023-07-08T00:01:58;101045.56;;;20.85;52.06
48204;BME280;33994;50.998;5.864;2023-07-08T00:05:01;101038.69;;;20.81;52.31
48204;BME280;33994;50.998;5.864;2023-07-08T00:08:04;101032.63;;;20.79;52.48
48204;BME280;33994;50.998;5.864;2023-07-08T00:11:09;101029.19;;;20.77;52.65
48204;BME280;33994;50.998;5.864;2023-07-08T00:14:14;101028.75;;;20.69;52.71
48204;BME280;33994;50.998;5.864;2023-07-08T00:17:17;101034.72;;;20.56;53.27
48204;BME280;33994;50.998;5.864;2023-07-08T00:20:26;101026.47;;;20.45;53.66
48204;BME280;33994;50.998;5.864;2023-07-08T00:23:31;101022.16;;;20.42;53.93
48204;BME280;33994;50.998;5.864;2023-07-08T00:26:34;101027.78;;;20.36;54.29
48204;BME280;33994;50.998;5.864;2023-07-08T00:29:39;101019.75;;;20.38;54.40
48204;BME280;33994;50.998;5.864;2023-07-08T00:32:42;101023.34;;;20.37;54.42
48204;BME280;33994;50.998;5.864;2023-07-08T00:35:45;101025.81;;;20.40;54.76
48204;BME280;33994;50.998;5.864;2023-07-08T00:38:49;101025.75;;;20.41;54.42
48204;BME280;33994;50.998;5.864;2023-07-08T00:41:52;101021.31;;;20.42;53.97
48204;BME280;33994;50.998;5.864;2023-07-08T00:44:58;101018.50;;;20.45;53.80
48204;BME280;33994;50.998;5.864;2023-07-08T00:48:07;101018.50;;;20.45;53.79
48204;BME280;33994;50.998;5.864;2023-07-08T00:51:12;101019.34;;;20.46;53.63
48204;BME280;33994;50.998;5.864;2023-07-08T00:54:17;101018.50;;;20.45;53.44
48204;BME280;33994;50.998;5.864;2023-07-08T01:00:25;101014.97;;;20.45;53.44
48204;BME280;33994;50.998;5.864;2023-07-08T01:03:30;101007.88;;;20.45;53.37
48204;BME280;33994;50.998;5.864;2023-07-08T01:06:35;100998.16;;;20.44;53.42
48204;BME280;33994;50.998;5.864;2023-07-08T01:09:43;101003.47;;;20.44;53.27
48204;BME280;33994;50.998;5.864;2023-07-08T01:12:52;101007.88;;;20.45;53.12
48204;BME280;33994;50.998;5.864;2023-07-08T01:15:58;101002.56;;;20.45;53.18
48204;BME280;33994;50.998;5.864;2023-07-08T01:19:02;101001.69;;;20.45;53.49
48204;BME280;33994;50.998;5.864;2023-07-08T01:22:09;101011.53;;;20.42;54.15
48204;BME280;33994;50.998;5.864;2023-07-08T01:25:13;101010.06;;;20.37;54.24
48204;BME280;33994;50.998;5.864;2023-07-08T01:28:17;101014.69;;;20.33;54.48
48204;BME280;33994;50.998;5.864;2023-07-08T01:31:21;101007.69;;;20.31;54.73
48204;BME280;33994;50.998;5.864;2023-07-08T01:34:24;101007.84;;;20.28;55.12
48204;BME280;33994;50.998;5.864;2023-07-08T01:37:33;101002.19;;;20.18;55.49
48204;BME280;33994;50.998;5.864;2023-07-08T01:40:38;101000.69;;;20.12;55.63
48204;BME280;33994;50.998;5.864;2023-07-08T01:43:43;100999.94;;;20.10;55.76
48204;BME280;33994;50.998;5.864;2023-07-08T01:46:47;101001.94;;;20.05;56.00
48204;BME280;33994;50.998;5.864;2023-07-08T01:49:50;101006.78;;;19.97;56.54
48204;BME280;33994;50.998;5.864;2023-07-08T01:52:57;100996.50;;;19.91;56.93
48204;BME280;33994;50.998;5.864;2023-07-08T01:56:01;100995.94;;;19.84;56.79
48204;BME280;33994;50.998;5.864;2023-07-08T01:59:04;100995.09;;;19.84;56.91
48204;BME280;33994;50.998;5.864;2023-07-08T02:02:11;100985.25;;;19.86;57.03
48204;BME280;33994;50.998;5.864;2023-07-08T02:05:14;100986.25;;;19.83;56.89
48204;BME280;33994;50.998;5.864;2023-07-08T02:08:18;100973.06;;;19.82;56.74
48204;BME280;33994;50.998;5.864;2023-07-08T02:11:21;100961.69;;;19.80;56.72
48204;BME280;33994;50.998;5.864;2023-07-08T02:14:24;100967.84;;;19.80;56.75
48204;BME280;33994;50.998;5.864;2023-07-08T02:17:27;100976.81;;;19.78;56.73
48204;BME280;33994;50.998;5.864;2023-07-08T02:20:30;100974.25;;;19.76;57.07
48204;BME280;33994;50.998;5.864;2023-07-08T02:23:35;100976.97;;;19.75;57.13
48204;BME280;33994;50.998;5.864;2023-07-08T02:26:38;100972.75;;;19.71;57.46
48204;BME280;33994;50.998;5.864;2023-07-08T02:29:41;100974.66;;;19.68;57.66
48204;BME280;33994;50.998;5.864;2023-07-08T02:32:44;100974.72;;;19.67;57.90
48204;BME280;33994;50.998;5.864;2023-07-08T02:35:47;100971.44;;;19.62;57.80
48204;BME280;33994;50.998;5.864;2023-07-08T02:38:52;100972.44;;;19.59;57.98
48204;BME280;33994;50.998;5.864;2023-07-08T02:41:55;100970.88;;;19.55;58.08
48204;BME280;33994;50.998;5.864;2023-07-08T02:44:58;100963.91;;;19.53;58.35
48204;BME280;33994;50.998;5.864;2023-07-08T02:48:01;100972.06;;;19.50;58.43
48204;BME280;33994;50.998;5.864;2023-07-08T02:51:05;100972.16;;;19.47;58.46
48204;BME280;33994;50.998;5.864;2023-07-08T02:54:10;100980.19;;;19.45;58.42
48204;BME280;33994;50.998;5.864;2023-07-08T02:57:13;100981.94;;;19.46;58.75
48204;BME280;33994;50.998;5.864;2023-07-08T03:00:16;100978.47;;;19.44;58.98
48204;BME280;33994;50.998;5.864;2023-07-08T03:03:20;100978.63;;;19.41;59.08
48204;BME280;33994;50.998;5.864;2023-07-08T03:06:23;100975.97;;;19.41;59.38
48204;BME280;33994;50.998;5.864;2023-07-08T03:09:27;100974.34;;;19.38;59.03
48204;BME280;33994;50.998;5.864;2023-07-08T03:12:31;100979.66;;;19.38;58.89
48204;BME280;33994;50.998;5.864;2023-07-08T03:15:34;100987.66;;;19.37;58.77
48204;BME280;33994;50.998;5.864;2023-07-08T03:18:38;100973.78;;;19.32;58.42
48204;BME280;33994;50.998;5.864;2023-07-08T03:21:41;100975.63;;;19.30;58.70
48204;BME280;33994;50.998;5.864;2023-07-08T03:24:46;100980.25;;;19.26;58.97
48204;BME280;33994;50.998;5.864;2023-07-08T03:27:49;100985.72;;;19.23;58.63
48204;BME280;33994;50.998;5.864;2023-07-08T03:30:52;100984.84;;;19.23;58.53
48204;BME280;33994;50.998;5.864;2023-07-08T03:33:55;100996.44;;;19.20;58.69
48204;BME280;33994;50.998;5.864;2023-07-08T03:36:59;100990.28;;;19.19;58.81
48204;BME280;33994;50.998;5.864;2023-07-08T03:40:05;100990.28;;;19.19;58.85
48204;BME280;33994;50.998;5.864;2023-07-08T03:43:10;101001.31;;;19.10;59.11
48204;BME280;33994;50.998;5.864;2023-07-08T03:46:15;101005.72;;;19.11;58.76
48204;BME280;33994;50.998;5.864;2023-07-08T03:49:19;101000.41;;;19.11;58.92
48204;BME280;33994;50.998;5.864;2023-07-08T03:52:23;101007.66;;;19.08;59.00
48204;BME280;33994;50.998;5.864;2023-07-08T03:55:27;100998.84;;;19.07;59.23
48204;BME280;33994;50.998;5.864;2023-07-08T03:58:30;100992.75;;;19.05;59.15
48204;BME280;33994;50.998;5.864;2023-07-08T04:01:34;101005.13;;;19.05;58.72
48204;BME280;33994;50.998;5.864;2023-07-08T04:04:37;101002.53;;;19.03;58.92
48204;BME280;33994;50.998;5.864;2023-07-08T04:07:40;101002.53;;;19.03;58.80
48204;BME280;33994;50.998;5.864;2023-07-08T04:10:45;100994.44;;;19.06;58.71
48204;BME280;33994;50.998;5.864;2023-07-08T04:13:49;101006.72;;;19.09;58.68
48204;BME280;33994;50.998;5.864;2023-07-08T04:16:55;101002.25;;;19.09;58.79
48204;BME280;33994;50.998;5.864;2023-07-08T04:19:59;101006.78;;;19.07;58.83
48204;BME280;33994;50.998;5.864;2023-07-08T04:23:02;100999.75;;;19.06;58.98
48204;BME280;33994;50.998;5.864;2023-07-08T04:26:08;100996.38;;;19.03;59.21
48204;BME280;33994;50.998;5.864;2023-07-08T04:29:12;100988.66;;;18.98;59.49
48204;BME280;33994;50.998;5.864;2023-07-08T04:32:15;100989.50;;;18.99;59.53
48204;BME280;33994;50.998;5.864;2023-07-08T04:35:18;101000.19;;;18.97;59.58
48204;BME280;33994;50.998;5.864;2023-07-08T04:38:23;100990.53;;;18.96;59.59
48204;BME280;33994;50.998;5.864;2023-07-08T04:41:27;100995.84;;;18.96;59.97
48204;BME280;33994;50.998;5.864;2023-07-08T04:44:30;100996.59;;;18.98;60.04
48204;BME280;33994;50.998;5.864;2023-07-08T04:47:34;101005.34;;;19.00;60.10
48204;BME280;33994;50.998;5.864;2023-07-08T04:50:37;101001.84;;;19.00;60.33
48204;BME280;33994;50.998;5.864;2023-07-08T04:53:40;100992.81;;;19.04;60.04
48204;BME280;33994;50.998;5.864;2023-07-08T04:56:46;100997.91;;;19.08;59.83
48204;BME280;33994;50.998;5.864;2023-07-08T04:59:49;100996.81;;;19.12;59.80
48204;BME280;33994;50.998;5.864;2023-07-08T05:02:53;100995.75;;;19.16;59.49
48204;BME280;33994;50.998;5.864;2023-07-08T05:05:56;100990.91;;;19.25;59.37
48204;BME280;33994;50.998;5.864;2023-07-08T05:08:59;100989.53;;;19.35;59.37
48204;BME280;33994;50.998;5.864;2023-07-08T05:12:05;100996.28;;;19.42;59.25
48204;BME280;33994;50.998;5.864;2023-07-08T05:15:09;100999.69;;;19.44;59.41
48204;BME280;33994;50.998;5.864;2023-07-08T05:18:12;100999.44;;;19.50;58.95
48204;BME280;33994;50.998;5.864;2023-07-08T05:21:15;100995.31;;;19.62;58.66
48204;BME280;33994;50.998;5.864;2023-07-08T05:24:19;100999.28;;;19.71;58.29
48204;BME280;33994;50.998;5.864;2023-07-08T05:27:23;101006.09;;;19.76;58.19
48204;BME280;33994;50.998;5.864;2023-07-08T05:30:27;100997.66;;;20.03;57.51
48204;BME280;33994;50.998;5.864;2023-07-08T05:33:30;100990.22;;;20.27;56.66
48204;BME280;33994;50.998;5.864;2023-07-08T05:36:33;100991.22;;;20.41;56.12
48204;BME280;33994;50.998;5.864;2023-07-08T05:39:37;100987.06;;;20.53;55.62
48204;BME280;33994;50.998;5.864;2023-07-08T05:42:41;100995.16;;;20.83;54.93
48204;BME280;33994;50.998;5.864;2023-07-08T05:45:44;101003.69;;;21.22;53.79
48204;BME280;33994;50.998;5.864;2023-07-08T05:48:47;100996.41;;;21.25;53.56
48204;BME280;33994;50.998;5.864;2023-07-08T05:51:51;101002.72;;;21.23;53.99
48204;BME280;33994;50.998;5.864;2023-07-08T05:54:54;101004.59;;;21.52;53.74
48204;BME280;33994;50.998;5.864;2023-07-08T05:57:58;101006.63;;;22.95;50.23
48204;BME280;33994;50.998;5.864;2023-07-08T06:01:02;101007.22;;;24.07;47.77
48204;BME280;33994;50.998;5.864;2023-07-08T06:04:05;101007.16;;;24.34;47.19
48204;BME280;33994;50.998;5.864;2023-07-08T06:07:08;101008.94;;;23.95;47.94
48204;BME280;33994;50.998;5.864;2023-07-08T06:10:11;101006.50;;;23.65;48.60
48204;BME280;33994;50.998;5.864;2023-07-08T06:13:16;100999.13;;;23.55;48.61
48204;BME280;33994;50.998;5.864;2023-07-08T06:16:19;100991.00;;;23.57;48.52
48204;BME280;33994;50.998;5.864;2023-07-08T06:19:22;100999.66;;;23.61;47.90
48204;BME280;33994;50.998;5.864;2023-07-08T06:22:25;100996.78;;;23.64;47.79
48204;BME280;33994;50.998;5.864;2023-07-08T06:25:29;100993.59;;;23.71;47.45
48204;BME280;33994;50.998;5.864;2023-07-08T06:28:33;101001.09;;;23.79;46.68
48204;BME280;33994;50.998;5.864;2023-07-08T06:31:37;100999.41;;;23.91;46.80
48204;BME280;33994;50.998;5.864;2023-07-08T06:34:39;100997.31;;;23.96;46.47
48204;BME280;33994;50.998;5.864;2023-07-08T06:37:43;100986.75;;;24.07;46.31
48204;BME280;33994;50.998;5.864;2023-07-08T06:40:46;100995.00;;;24.17;46.44
48204;BME280;33994;50.998;5.864;2023-07-08T06:43:51;101015.72;;;24.26;45.56
48204;BME280;33994;50.998;5.864;2023-07-08T06:46:53;101013.16;;;24.37;45.78
48204;BME280;33994;50.998;5.864;2023-07-08T06:49:57;101015.28;;;24.45;45.57
48204;BME280;33994;50.998;5.864;2023-07-08T06:53:00;101022.75;;;24.52;45.40
48204;BME280;33994;50.998;5.864;2023-07-08T06:56:03;101023.84;;;24.63;45.25
48204;BME280;33994;50.998;5.864;2023-07-08T06:59:08;101032.59;;;24.77;45.21
48204;BME280;33994;50.998;5.864;2023-07-08T07:02:11;101022.34;;;24.84;45.46
48204;BME280;33994;50.998;5.864;2023-07-08T07:05:15;101017.50;;;24.89;45.32
48204;BME280;33994;50.998;5.864;2023-07-08T07:08:18;101030.47;;;24.95;45.78
48204;BME280;33994;50.998;5.864;2023-07-08T07:11:21;101023.03;;;25.12;45.84
48204;BME280;33994;50.998;5.864;2023-07-08T07:14:26;101011.31;;;25.25;45.21
48204;BME280;33994;50.998;5.864;2023-07-08T07:17:29;101015.75;;;25.38;45.20
48204;BME280;33994;50.998;5.864;2023-07-08T07:20:33;101012.53;;;25.45;45.07
48204;BME280;33994;50.998;5.864;2023-07-08T07:23:36;101016.00;;;25.59;44.77
48204;BME280;33994;50.998;5.864;2023-07-08T07:26:39;101011.66;;;25.69;44.68
48204;BME280;33994;50.998;5.864;2023-07-08T07:29:45;101004.66;;;25.79;44.40
48204;BME280;33994;50.998;5.864;2023-07-08T07:32:48;100999.56;;;25.87;44.38
48204;BME280;33994;50.998;5.864;2023-07-08T07:35:52;101001.47;;;25.85;44.62
48204;BME280;33994;50.998;5.864;2023-07-08T07:38:55;101007.97;;;25.94;44.61
48204;BME280;33994;50.998;5.864;2023-07-08T07:41:58;101001.44;;;26.09;43.82
48204;BME280;33994;50.998;5.864;2023-07-08T07:45:04;101011.22;;;26.21;43.61
48204;BME280;33994;50.998;5.864;2023-07-08T07:48:07;101006.22;;;26.28;43.69
48204;BME280;33994;50.998;5.864;2023-07-08T07:51:10;101007.44;;;26.35;43.78
48204;BME280;33994;50.998;5.864;2023-07-08T07:54:13;101007.13;;;26.40;43.71
48204;BME280;33994;50.998;5.864;2023-07-08T07:57:16;101004.53;;;26.50;43.68
48204;BME280;33994;50.998;5.864;2023-07-08T08:00:21;101006.00;;;26.54;43.46
48204;BME280;33994;50.998;5.864;2023-07-08T08:03:24;101008.22;;;26.60;43.27
48204;BME280;33994;50.998;5.864;2023-07-08T08:06:27;101003.56;;;26.62;43.35
48204;BME280;33994;50.998;5.864;2023-07-08T08:09:31;101007.00;;;26.64;43.56
48204;BME280;33994;50.998;5.864;2023-07-08T08:12:35;101011.84;;;26.70;44.01
48204;BME280;33994;50.998;5.864;2023-07-08T08:15:39;101013.06;;;26.66;44.25
48204;BME280;33994;50.998;5.864;2023-07-08T08:18:42;101008.22;;;26.71;44.41
48204;BME280;33994;50.998;5.864;2023-07-08T08:21:45;101011.16;;;26.79;44.14
48204;BME280;33994;50.998;5.864;2023-07-08T08:24:49;101013.22;;;26.87;44.35
48204;BME280;33994;50.998;5.864;2023-07-08T08:27:52;101027.97;;;26.92;44.34
48204;BME280;33994;50.998;5.864;2023-07-08T08:30:56;101024.19;;;26.95;44.52
48204;BME280;33994;50.998;5.864;2023-07-08T08:33:59;101028.19;;;27.01;45.28
48204;BME280;33994;50.998;5.864;2023-07-08T08:37:03;101025.03;;;27.07;44.98
48204;BME280;33994;50.998;5.864;2023-07-08T08:40:11;101027.31;;;27.11;44.90
48204;BME280;33994;50.998;5.864;2023-07-08T08:43:20;101033.06;;;27.18;44.85
48204;BME280;33994;50.998;5.864;2023-07-08T08:46:36;101027.44;;;27.21;44.69
48204;BME280;33994;50.998;5.864;2023-07-08T08:49:44;101033.41;;;27.25;44.63
48204;BME280;33994;50.998;5.864;2023-07-08T08:52:50;101028.38;;;27.31;44.24
48204;BME280;33994;50.998;5.864;2023-07-08T08:55:56;101025.44;;;27.34;44.86
48204;BME280;33994;50.998;5.864;2023-07-08T08:59:07;101030.09;;;27.44;43.84
48204;BME280;33994;50.998;5.864;2023-07-08T09:02:25;101028.72;;;27.49;43.88
48204;BME280;33994;50.998;5.864;2023-07-08T09:05:32;101020.41;;;27.52;43.59
48204;BME280;33994;50.998;5.864;2023-07-08T09:08:36;101015.66;;;27.56;43.70
48204;BME280;33994;50.998;5.864;2023-07-08T09:11:44;101011.97;;;27.57;42.90
48204;BME280;33994;50.998;5.864;2023-07-08T09:14:49;101006.34;;;27.60;42.81
48204;BME280;33994;50.998;5.864;2023-07-08T09:17:57;101004.97;;;27.65;41.71
48204;BME280;33994;50.998;5.864;2023-07-08T09:21:10;100995.81;;;27.68;41.79
48204;BME280;33994;50.998;5.864;2023-07-08T09:24:19;100986.63;;;27.71;41.40
48204;BME280;33994;50.998;5.864;2023-07-08T09:27:24;100999.66;;;27.54;41.55
48204;BME280;33994;50.998;5.864;2023-07-08T09:30:27;101004.25;;;27.63;40.56
48204;BME280;33994;50.998;5.864;2023-07-08T09:33:31;100993.97;;;27.69;40.37
48204;BME280;33994;50.998;5.864;2023-07-08T09:36:39;101004.06;;;27.76;40.32
48204;BME280;33994;50.998;5.864;2023-07-08T09:39:42;101003.66;;;27.81;40.02
48204;BME280;33994;50.998;5.864;2023-07-08T09:42:50;101002.31;;;27.86;39.31
48204;BME280;33994;50.998;5.864;2023-07-08T09:45:58;101001.50;;;27.96;39.36
48204;BME280;33994;50.998;5.864;2023-07-08T09:49:16;100999.03;;;28.04;39.19
48204;BME280;33994;50.998;5.864;2023-07-08T09:52:19;101012.97;;;28.09;39.85
48204;BME280;33994;50.998;5.864;2023-07-08T09:55:23;101003.66;;;28.13;40.25
48204;BME280;33994;50.998;5.864;2023-07-08T09:58:30;101006.78;;;28.18;39.57
48204;BME280;33994;50.998;5.864;2023-07-08T10:01:34;101011.91;;;28.21;40.00
48204;BME280;33994;50.998;5.864;2023-07-08T10:04:39;101010.91;;;28.22;40.32
48204;BME280;33994;50.998;5.864;2023-07-08T10:07:44;101009.66;;;28.26;41.10
48204;BME280;33994;50.998;5.864;2023-07-08T10:11:00;101015.34;;;28.33;41.34
48204;BME280;33994;50.998;5.864;2023-07-08T10:14:08;101008.88;;;28.35;40.66
48204;BME280;33994;50.998;5.864;2023-07-08T10:17:15;101014.94;;;28.37;41.34
48204;BME280;33994;50.998;5.864;2023-07-08T10:20:20;101010.56;;;28.36;41.10
48204;BME280;33994;50.998;5.864;2023-07-08T10:23:34;101015.69;;;28.39;42.08
48204;BME280;33994;50.998;5.864;2023-07-08T10:26:42;101004.66;;;28.43;41.14
48204;BME280;33994;50.998;5.864;2023-07-08T10:29:53;101007.63;;;28.49;41.15
48204;BME280;33994;50.998;5.864;2023-07-08T10:33:13;101010.91;;;28.53;41.13
48204;BME280;33994;50.998;5.864;2023-07-08T10:36:41;101015.19;;;28.55;40.36
48204;BME280;33994;50.998;5.864;2023-07-08T10:39:55;101019.50;;;28.58;40.81
48204;BME280;33994;50.998;5.864;2023-07-08T10:43:12;101016.50;;;28.61;40.76
48204;BME280;33994;50.998;5.864;2023-07-08T10:46:24;101017.22;;;28.63;40.74
48204;BME280;33994;50.998;5.864;2023-07-08T10:49:42;101010.84;;;28.64;39.26
48204;BME280;33994;50.998;5.864;2023-07-08T10:52:59;101018.63;;;28.57;39.97
48204;BME280;33994;50.998;5.864;2023-07-08T10:56:13;101016.88;;;28.56;39.95
48204;BME280;33994;50.998;5.864;2023-07-08T10:59:29;101013.81;;;28.61;39.66
48204;BME280;33994;50.998;5.864;2023-07-08T11:02:51;101017.41;;;28.71;39.23
48204;BME280;33994;50.998;5.864;2023-07-08T11:06:02;101011.22;;;28.80;39.85
48204;BME280;33994;50.998;5.864;2023-07-08T11:09:12;101009.06;;;28.84;38.15
48204;BME280;33994;50.998;5.864;2023-07-08T11:12:21;101005.41;;;28.85;38.07
48204;BME280;33994;50.998;5.864;2023-07-08T11:15:33;101010.38;;;28.90;38.72
48204;BME280;33994;50.998;5.864;2023-07-08T11:18:42;100993.50;;;28.87;38.50
48204;BME280;33994;50.998;5.864;2023-07-08T11:21:47;100997.94;;;28.89;39.27
48204;BME280;33994;50.998;5.864;2023-07-08T11:24:54;101002.31;;;28.90;38.84
48204;BME280;33994;50.998;5.864;2023-07-08T11:28:02;101001.47;;;28.89;38.85
48204;BME280;33994;50.998;5.864;2023-07-08T11:31:08;100993.50;;;28.87;39.08
48204;BME280;33994;50.998;5.864;2023-07-08T11:34:12;100996.66;;;28.93;39.26
48204;BME280;33994;50.998;5.864;2023-07-08T11:37:19;100989.59;;;28.92;39.13
48204;BME280;33994;50.998;5.864;2023-07-08T11:40:24;100994.66;;;28.95;38.96
48204;BME280;33994;50.998;5.864;2023-07-08T11:43:28;100998.34;;;28.94;38.41
48204;BME280;33994;50.998;5.864;2023-07-08T11:46:53;100994.97;;;28.92;37.57
48204;BME280;33994;50.998;5.864;2023-07-08T11:49:56;100997.66;;;28.92;38.31
48204;BME280;33994;50.998;5.864;2023-07-08T11:53:01;100992.13;;;28.93;37.87
48204;BME280;33994;50.998;5.864;2023-07-08T11:56:22;100985.88;;;28.93;37.15
48204;BME280;33994;50.998;5.864;2023-07-08T11:59:29;100991.13;;;28.94;37.46
48204;BME280;33994;50.998;5.864;2023-07-08T12:02:48;100981.66;;;29.00;38.37
48204;BME280;33994;50.998;5.864;2023-07-08T12:05:51;100984.34;;;29.09;38.17
48204;BME280;33994;50.998;5.864;2023-07-08T12:08:55;100978.53;;;29.14;38.41
48204;BME280;33994;50.998;5.864;2023-07-08T12:12:04;100977.31;;;29.18;37.36
48204;BME280;33994;50.998;5.864;2023-07-08T12:15:12;100982.69;;;29.18;37.29
48204;BME280;33994;50.998;5.864;2023-07-08T12:18:20;100981.44;;;29.22;37.62
48204;BME280;33994;50.998;5.864;2023-07-08T12:21:26;100972.38;;;29.23;37.38
48204;BME280;33994;50.998;5.864;2023-07-08T12:24:29;100970.38;;;29.25;36.75
48204;BME280;33994;50.998;5.864;2023-07-08T12:27:33;100973.06;;;29.25;36.46
48204;BME280;33994;50.998;5.864;2023-07-08T12:30:37;100962.59;;;29.22;36.81
48204;BME280;33994;50.998;5.864;2023-07-08T12:33:41;100962.16;;;29.27;37.09
48204;BME280;33994;50.998;5.864;2023-07-08T12:36:44;100959.59;;;29.25;37.51
48204;BME280;33994;50.998;5.864;2023-07-08T12:39:54;100961.31;;;29.36;37.31
48204;BME280;33994;50.998;5.864;2023-07-08T12:42:59;100961.31;;;29.46;37.49
48204;BME280;33994;50.998;5.864;2023-07-08T12:46:02;100956.75;;;29.56;37.57
48204;BME280;33994;50.998;5.864;2023-07-08T12:49:07;100961.31;;;29.65;37.48
48204;BME280;33994;50.998;5.864;2023-07-08T12:52:20;100957.78;;;29.74;37.99
48204;BME280;33994;50.998;5.864;2023-07-08T12:55:23;100959.91;;;29.80;37.55
48204;BME280;33994;50.998;5.864;2023-07-08T12:58:30;100951.94;;;29.89;36.43
48204;BME280;33994;50.998;5.864;2023-07-08T13:01:33;100959.31;;;29.87;36.67
48204;BME280;33994;50.998;5.864;2023-07-08T13:04:38;100952.81;;;29.79;37.24
48204;BME280;33994;50.998;5.864;2023-07-08T13:07:43;100953.34;;;29.73;36.84
48204;BME280;33994;50.998;5.864;2023-07-08T13:10:47;100953.78;;;29.69;36.48
48204;BME280;33994;50.998;5.864;2023-07-08T13:13:54;100960.47;;;29.74;36.80
48204;BME280;33994;50.998;5.864;2023-07-08T13:16:57;100962.44;;;29.72;36.97
48204;BME280;33994;50.998;5.864;2023-07-08T13:20:00;100956.19;;;29.72;36.83
48204;BME280;33994;50.998;5.864;2023-07-08T13:23:04;100961.88;;;29.69;36.86
48204;BME280;33994;50.998;5.864;2023-07-08T13:26:15;100951.38;;;29.66;36.65
48204;BME280;33994;50.998;5.864;2023-07-08T13:29:20;100948.28;;;29.61;37.03
48204;BME280;33994;50.998;5.864;2023-07-08T13:32:29;100951.09;;;29.59;37.21
48204;BME280;33994;50.998;5.864;2023-07-08T13:35:36;100959.03;;;29.61;36.56
48204;BME280;33994;50.998;5.864;2023-07-08T13:38:39;100963.88;;;29.57;36.66
48204;BME280;33994;50.998;5.864;2023-07-08T13:41:43;100962.47;;;29.53;37.37
48204;BME280;33994;50.998;5.864;2023-07-08T13:44:48;100959.31;;;29.57;37.36
48204;BME280;33994;50.998;5.864;2023-07-08T13:48:08;100958.16;;;29.60;36.85
48204;BME280;33994;50.998;5.864;2023-07-08T13:51:17;100964.72;;;29.57;37.48
48204;BME280;33994;50.998;5.864;2023-07-08T13:54:22;100961.19;;;29.57;37.65
48204;BME280;33994;50.998;5.864;2023-07-08T13:57:31;100972.66;;;29.59;37.70
48204;BME280;33994;50.998;5.864;2023-07-08T14:00:36;100968.66;;;29.63;37.85
48204;BME280;33994;50.998;5.864;2023-07-08T14:03:39;100969.50;;;29.64;38.30
48204;BME280;33994;50.998;5.864;2023-07-08T14:06:42;100967.69;;;29.64;38.14
48204;BME280;33994;50.998;5.864;2023-07-08T14:09:45;100978.03;;;29.69;38.42
48204;BME280;33994;50.998;5.864;2023-07-08T14:12:48;100976.63;;;29.74;38.81
48204;BME280;33994;50.998;5.864;2023-07-08T14:15:53;100973.81;;;29.76;38.45
48204;BME280;33994;50.998;5.864;2023-07-08T14:18:57;100978.03;;;29.78;38.48
48204;BME280;33994;50.998;5.864;2023-07-08T14:22:03;100984.84;;;29.82;38.36
48204;BME280;33994;50.998;5.864;2023-07-08T14:25:10;100982.72;;;29.86;37.89
48204;BME280;33994;50.998;5.864;2023-07-08T14:28:13;100993.38;;;29.88;37.67
48204;BME280;33994;50.998;5.864;2023-07-08T14:31:21;100990.38;;;29.91;37.10
48204;BME280;33994;50.998;5.864;2023-07-08T14:34:25;100990.25;;;29.92;37.38
48204;BME280;33994;50.998;5.864;2023-07-08T14:37:29;100991.66;;;29.96;37.51
48204;BME280;33994;50.998;5.864;2023-07-08T14:40:35;100988.50;;;30.01;37.63
48204;BME280;33994;50.998;5.864;2023-07-08T14:43:38;100990.75;;;30.05;38.27
48204;BME280;33994;50.998;5.864;2023-07-08T14:46:43;100984.25;;;30.08;38.82
48204;BME280;33994;50.998;5.864;2023-07-08T14:49:47;100994.03;;;30.09;38.67
48204;BME280;33994;50.998;5.864;2023-07-08T14:52:50;100998.84;;;30.05;38.88
48204;BME280;33994;50.998;5.864;2023-07-08T14:55:54;101003.84;;;30.00;38.19
48204;BME280;33994;50.998;5.864;2023-07-08T14:58:58;101003.00;;;30.00;38.09
48204;BME280;33994;50.998;5.864;2023-07-08T15:02:16;101003.84;;;30.00;37.41
48204;BME280;33994;50.998;5.864;2023-07-08T15:05:21;101003.56;;;30.03;37.74
48204;BME280;33994;50.998;5.864;2023-07-08T15:08:25;101007.25;;;30.02;37.69
48204;BME280;33994;50.998;5.864;2023-07-08T15:11:28;101001.31;;;29.99;37.28
48204;BME280;33994;50.998;5.864;2023-07-08T15:14:32;101005.81;;;29.98;37.57
48204;BME280;33994;50.998;5.864;2023-07-08T15:17:37;101007.09;;;29.94;37.89
48204;BME280;33994;50.998;5.864;2023-07-08T15:20:40;101014.63;;;29.91;38.29
48204;BME280;33994;50.998;5.864;2023-07-08T15:23:44;101015.78;;;29.88;38.54
48204;BME280;33994;50.998;5.864;2023-07-08T15:26:48;101013.53;;;29.83;39.13
48204;BME280;33994;50.998;5.864;2023-07-08T15:29:51;101022.59;;;29.82;39.37
48204;BME280;33994;50.998;5.864;2023-07-08T15:32:56;101009.81;;;29.85;39.48
48204;BME280;33994;50.998;5.864;2023-07-08T15:36:00;101018.91;;;29.83;39.78
48204;BME280;33994;50.998;5.864;2023-07-08T15:39:03;101024.59;;;29.80;40.07
48204;BME280;33994;50.998;5.864;2023-07-08T15:42:10;101016.78;;;29.77;40.71
48204;BME280;33994;50.998;5.864;2023-07-08T15:45:16;101012.41;;;29.76;41.23
48204;BME280;33994;50.998;5.864;2023-07-08T15:48:22;101016.34;;;29.72;41.19
48204;BME280;33994;50.998;5.864;2023-07-08T15:51:25;101010.50;;;29.67;41.61
48204;BME280;33994;50.998;5.864;2023-07-08T15:54:28;101011.50;;;29.66;42.52
48204;BME280;33994;50.998;5.864;2023-07-08T15:57:33;101012.22;;;29.68;42.70
48204;BME280;33994;50.998;5.864;2023-07-08T16:00:38;101011.50;;;29.66;43.15
48204;BME280;33994;50.998;5.864;2023-07-08T16:03:43;101001.56;;;29.67;43.53
48204;BME280;33994;50.998;5.864;2023-07-08T16:06:47;101003.25;;;29.68;43.33
48204;BME280;33994;50.998;5.864;2023-07-08T16:09:50;100998.88;;;29.67;43.42
48204;BME280;33994;50.998;5.864;2023-07-08T16:12:53;101007.13;;;29.65;43.88